Time;durP1;ratioP1;P1;durP2;ratioP2;P2;SDS_P1;SDS_P2;PMS_P1;PMS_P2;Temp;Humidity;BMP_temperature;BMP_pressure;BME280_temperature;BME280_humidity;BME280_pressure;Samples;Min_cycle;Max_cycle;Signal;HPM_P1;HPM_P2
2023/02/26 05:59:46;;;;;;;5.70;1.00;;;11.10;53.20;;;;;;5092570;24;20065;-80
2023/02/26 06:02:20;;;;;;;4.88;0.90;;;11.10;57.10;;;;;;4865293;29;20136;-84
2023/02/26 06:04:49;;;;;;;7.72;0.70;;;11.20;53.60;;;;;;4865126;29;20417;-83
2023/02/26 06:07:14;;;;;;;6.80;0.57;;;11.20;56.10;;;;;;4850112;29;20049;-83
2023/02/26 06:09:40;;;;;;;15.05;1.50;;;11.40;56.90;;;;;;4865288;29;20056;-80
2023/02/26 06:12:06;;;;;;;10.88;1.30;;;11.50;57.30;;;;;;4880992;29;20033;-87
2023/02/26 06:15:11;;;;;;;9.38;1.00;;;11.70;57.40;;;;;;4848899;29;20048;-84
2023/02/26 06:22:28;;;;;;;12.88;0.90;;;12.20;57.50;;;;;;4867139;29;20063;-81
2023/02/26 06:24:56;;;;;;;7.75;1.00;;;12.50;57.90;;;;;;4863902;29;20068;-82
2023/02/26 06:27:23;;;;;;;15.07;1.00;;;12.60;57.70;;;;;;4866168;29;20052;-80
2023/02/26 06:29:48;;;;;;;8.65;1.45;;;12.70;57.90;;;;;;4866058;29;20536;-79
2023/02/26 06:32:14;;;;;;;10.18;1.27;;;12.80;58.20;;;;;;4865750;29;20041;-79
2023/02/26 06:34:40;;;;;;;10.30;1.10;;;12.90;58.50;;;;;;4849220;29;20051;-78
2023/02/26 06:37:05;;;;;;;9.65;0.93;;;13.10;58.60;;;;;;4872103;29;20037;-76
2023/02/26 06:39:31;;;;;;;18.50;1.27;;;13.20;58.60;;;;;;4866075;29;20041;-78
2023/02/26 06:41:57;;;;;;;13.52;1.83;;;13.20;58.90;;;;;;4864426;29;20128;-76
2023/02/26 06:44:23;;;;;;;16.77;1.83;;;13.30;59.30;;;;;;4879318;29;20052;-77
2023/02/26 06:46:49;;;;;;;15.50;1.42;;;13.30;59.60;;;;;;4880461;29;20112;-76
2023/02/26 06:49:14;;;;;;;7.90;1.05;;;13.40;59.70;;;;;;4863684;29;20117;-76
2023/02/26 06:51:40;;;;;;;13.40;1.13;;;13.50;59.60;;;;;;4867429;29;20052;-78
2023/02/26 06:54:06;;;;;;;8.55;1.00;;;13.60;59.50;;;;;;4850411;29;20172;-77
2023/02/26 06:56:32;;;;;;;10.48;1.00;;;13.60;59.50;;;;;;4877356;29;20064;-75
2023/02/26 06:58:57;;;;;;;5.68;0.80;;;13.80;59.20;;;;;;4866869;29;20067;-73
2023/02/26 07:01:23;;;;;;;11.90;1.00;;;13.80;59.50;;;;;;4863784;29;20060;-74
2023/02/26 07:03:49;;;;;;;22.08;1.45;;;13.80;59.60;;;;;;4863420;29;20093;-77
2023/02/26 07:06:16;;;;;;;15.00;1.70;;;13.90;59.50;;;;;;4846908;29;20520;-77
2023/02/26 07:08:41;;;;;;;12.95;1.15;;;13.90;60.10;;;;;;4863536;29;20050;-75
2023/02/26 07:11:08;;;;;;;12.07;0.95;;;14.00;60.20;;;;;;4863495;29;20372;-76
2023/02/26 07:13:36;;;;;;;6.07;0.98;;;14.00;60.40;;;;;;4862512;29;20057;-74
2023/02/26 07:16:06;;;;;;;20.80;1.55;;;14.10;60.40;;;;;;4863190;29;20041;-78
2023/02/26 07:18:34;;;;;;;8.32;1.90;;;14.20;60.30;;;;;;4863717;29;20045;-77
2023/02/26 07:21:00;;;;;;;11.20;0.98;;;14.20;60.40;;;;;;4846708;29;20051;-77
2023/02/26 07:23:26;;;;;;;9.55;0.95;;;14.20;60.40;;;;;;4863092;29;20080;-79
2023/02/26 07:25:52;;;;;;;12.02;1.45;;;14.30;60.40;;;;;;4875163;29;20045;-81
2023/02/26 07:28:19;;;;;;;18.02;1.55;;;14.30;60.40;;;;;;4849554;29;20053;-78
2023/02/26 07:30:45;;;;;;;12.02;1.20;;;14.40;60.30;;;;;;4867066;29;20091;-78
2023/02/26 07:33:12;;;;;;;3.35;0.88;;;14.40;57.80;;;;;;4846465;29;20041;-78
2023/02/26 07:35:38;;;;;;;5.55;0.77;;;14.40;54.90;;;;;;4867933;29;20052;-78
2023/02/26 07:38:04;;;;;;;5.72;0.90;;;14.30;52.40;;;;;;4881497;29;20045;-82
2023/02/26 07:40:36;;;;;;;5.30;0.70;;;14.30;50.00;;;;;;4849685;29;20049;-81
2023/02/26 07:43:02;;;;;;;3.20;0.50;;;14.30;49.50;;;;;;4881437;29;20360;-80
2023/02/26 07:45:30;;;;;;;4.50;0.50;;;14.30;49.90;;;;;;4849346;29;20048;-82
2023/02/26 07:47:56;;;;;;;2.88;0.80;;;14.30;50.40;;;;;;4865178;29;20041;-79
2023/02/26 07:50:23;;;;;;;5.35;0.63;;;14.40;50.80;;;;;;4849484;29;20048;-79
2023/02/26 07:52:52;;;;;;;7.10;0.85;;;14.30;51.30;;;;;;4881387;29;20463;-80
2023/02/26 07:55:18;;;;;;;2.78;0.60;;;14.40;51.70;;;;;;4881393;29;20049;-79
2023/02/26 07:57:44;;;;;;;10.88;1.48;;;14.50;51.90;;;;;;4864470;29;20040;-78
2023/02/26 08:00:10;;;;;;;8.38;0.80;;;14.50;51.20;;;;;;4880832;29;20064;-80
2023/02/26 08:02:36;;;;;;;11.82;1.13;;;14.60;51.30;;;;;;4865118;29;20139;-79
2023/02/26 08:05:02;;;;;;;12.07;1.20;;;14.60;51.60;;;;;;4865023;29;20097;-80
2023/02/26 08:07:28;;;;;;;11.25;1.20;;;14.60;51.90;;;;;;4864996;29;20101;-79
2023/02/26 08:09:54;;;;;;;8.68;0.80;;;14.60;52.40;;;;;;4881471;29;20497;-80
2023/02/26 08:12:19;;;;;;;8.43;0.95;;;14.60;51.80;;;;;;4863650;29;20094;-80
2023/02/26 08:14:46;;;;;;;8.80;0.77;;;14.60;49.90;;;;;;4865288;29;20049;-80
2023/02/26 08:17:12;;;;;;;5.47;0.73;;;14.60;47.50;;;;;;4864645;29;20053;-80
2023/02/26 08:19:38;;;;;;;7.63;0.77;;;14.50;46.80;;;;;;4881161;29;20135;-80
2023/02/26 08:22:04;;;;;;;7.18;0.80;;;14.50;46.50;;;;;;4863702;29;20141;-81
2023/02/26 08:24:30;;;;;;;5.40;0.80;;;14.50;46.20;;;;;;4879721;29;20128;-80
2023/02/26 08:26:55;;;;;;;10.63;0.80;;;14.50;46.50;;;;;;4865485;29;20056;-80
2023/02/26 08:33:24;;;;;;;11.95;1.73;;;14.50;47.90;;;;;;4822245;29;20050;-81
2023/02/26 08:35:50;;;;;;;13.70;1.73;;;14.60;48.70;;;;;;4878069;29;20063;-86
2023/02/26 08:38:28;;;;;;;9.40;1.58;;;14.70;48.90;;;;;;4872359;29;20033;-82
2023/02/26 08:40:57;;;;;;;11.18;1.70;;;14.70;49.10;;;;;;4851371;29;20460;-80
2023/02/26 08:43:26;;;;;;;20.40;2.03;;;14.60;49.90;;;;;;4867780;29;20468;-81
2023/02/26 08:45:56;;;;;;;9.95;1.08;;;14.70;50.40;;;;;;4869416;29;20065;-81
2023/02/26 08:48:24;;;;;;;10.27;1.20;;;14.60;50.90;;;;;;4880176;29;20057;-81
2023/02/26 08:50:59;;;;;;;11.43;1.33;;;14.70;51.60;;;;;;4852758;29;20041;-82
2023/02/26 08:53:25;;;;;;;14.65;1.40;;;14.70;51.30;;;;;;4884165;29;20388;-83
2023/02/26 08:55:52;;;;;;;12.13;1.25;;;14.70;52.40;;;;;;4866278;29;20076;-82
2023/02/26 08:58:29;;;;;;;10.23;1.58;;;14.70;52.60;;;;;;4883735;29;20053;-79
2023/02/26 09:00:57;;;;;;;11.05;1.15;;;14.70;52.70;;;;;;4884221;29;20072;-77
2023/02/26 09:03:45;;;;;;;12.20;1.30;;;14.70;52.70;;;;;;4884311;29;20057;-83
2023/02/26 09:06:12;;;;;;;11.88;1.00;;;14.70;52.90;;;;;;4882510;29;20045;-79
2023/02/26 09:08:38;;;;;;;14.30;1.30;;;14.70;52.90;;;;;;4856971;29;20120;-80
2023/02/26 09:11:07;;;;;;;15.75;2.05;;;14.60;53.10;;;;;;4867801;29;20132;-79
2023/02/26 09:13:35;;;;;;;11.50;1.98;;;14.60;53.60;;;;;;4883018;29;20041;-79
2023/02/26 09:16:10;;;;;;;14.40;2.13;;;14.60;53.80;;;;;;4851596;29;20127;-77
2023/02/26 09:19:04;;;;;;;9.70;1.52;;;14.60;53.80;;;;;;4867300;29;20052;-82
2023/02/26 09:21:34;;;;;;;;;;;14.60;54.00;;;;;;4882915;29;20061;-81
2023/02/26 09:31:41;;;;;;;11.90;1.33;;;14.50;55.00;;;;;;4773503;30;20082;-81
2023/02/26 09:34:56;;;;;;;8.60;0.85;;;14.50;55.30;;;;;;4868894;29;20357;-82
2023/02/26 09:37:57;;;;;;;9.35;0.65;;;14.60;55.60;;;;;;4884675;29;20404;-82
2023/02/26 09:40:42;;;;;;;9.65;1.00;;;14.60;55.10;;;;;;4883664;29;20045;-80
2023/02/26 09:43:38;;;;;;;4.97;0.70;;;14.60;55.00;;;;;;4851984;29;20040;-75
2023/02/26 09:46:37;;;;;;;7.05;0.80;;;14.50;54.90;;;;;;4865007;29;20095;-85
2023/02/26 09:49:27;;;;;;;10.95;1.10;;;14.60;55.00;;;;;;4863632;29;20064;-86
2023/02/26 09:52:37;;;;;;;6.68;1.15;;;14.50;55.00;;;;;;4860536;29;20122;-85
2023/02/26 09:55:15;;;;;;;9.10;1.00;;;14.50;55.00;;;;;;4820726;29;20045;-84
2023/02/26 09:57:44;;;;;;;5.53;0.60;;;14.50;55.00;;;;;;4882209;29;20045;-81
2023/02/26 10:00:41;;;;;;;6.80;0.40;;;14.60;55.00;;;;;;4864884;29;20059;-79
2023/02/26 10:03:10;;;;;;;2.80;0.50;;;14.50;55.00;;;;;;4875896;29;20198;-75
2023/02/26 10:05:59;;;;;;;5.50;0.45;;;14.50;55.00;;;;;;4883127;29;20045;-79
2023/02/26 10:08:36;;;;;;;4.30;0.50;;;14.50;55.10;;;;;;4882672;29;20049;-77
2023/02/26 10:11:46;;;;;;;3.85;0.70;;;14.60;55.20;;;;;;4882230;29;20061;-82
2023/02/26 10:14:21;;;;;;;4.85;0.55;;;14.50;55.40;;;;;;4860356;29;20380;-83
2023/02/26 10:17:19;;;;;;;5.47;0.55;;;14.50;55.50;;;;;;4839759;29;20466;-88
2023/02/26 10:20:17;;;;;;;2.38;0.20;;;14.50;55.50;;;;;;4846250;29;20099;-84
2023/02/26 10:23:01;;;;;;;3.67;0.68;;;14.50;55.70;;;;;;4869985;29;20145;-85
2023/02/26 10:26:12;;;;;;;3.45;0.65;;;14.50;56.20;;;;;;4863474;29;20441;-83
2023/02/26 10:29:25;;;;;;;7.63;1.30;;;14.50;56.00;;;;;;4875249;29;20045;-82
2023/02/26 10:32:11;;;;;;;10.32;0.93;;;14.50;56.20;;;;;;4860462;29;20064;-80
2023/02/26 10:34:47;;;;;;;9.45;1.08;;;14.50;56.40;;;;;;4847877;29;20112;-81
2023/02/26 10:37:20;;;;;;;9.07;0.60;;;14.50;56.50;;;;;;4872592;29;20048;-82
2023/02/26 10:39:54;;;;;;;9.43;0.88;;;14.50;56.30;;;;;;4862872;29;20053;-82
2023/02/26 10:42:43;;;;;;;6.10;0.75;;;14.50;55.70;;;;;;4861356;29;20051;-83
2023/02/26 10:45:33;;;;;;;10.98;1.00;;;14.40;54.80;;;;;;4876719;29;20045;-79
2023/02/26 10:48:08;;;;;;;4.93;0.60;;;14.50;53.80;;;;;;4872992;29;20144;-82
2023/02/26 10:50:34;;;;;;;7.57;0.70;;;14.60;52.90;;;;;;4865535;29;20131;-79
2023/02/26 10:53:01;;;;;;;6.82;0.50;;;14.60;52.20;;;;;;4881456;29;20053;-80
2023/02/26 10:55:45;;;;;;;7.38;1.08;;;14.50;51.40;;;;;;4881567;29;20049;-81
2023/02/26 10:58:17;;;;;;;4.50;0.77;;;14.50;51.10;;;;;;4849912;29;20047;-81
2023/02/26 11:00:46;;;;;;;4.65;0.82;;;14.50;51.50;;;;;;4881525;29;20064;-81
2023/02/26 11:03:50;;;;;;;10.52;1.67;;;14.50;52.40;;;;;;4864848;29;20136;-80
2023/02/26 11:06:32;;;;;;;10.68;1.05;;;14.50;53.30;;;;;;4842719;29;20050;-78
2023/02/26 11:09:00;;;;;;;7.10;0.70;;;14.50;53.60;;;;;;4870570;29;20061;-78
2023/02/26 11:11:52;;;;;;;12.85;1.42;;;14.50;54.20;;;;;;4849944;29;20049;-76
2023/02/26 11:14:19;;;;;;;7.68;0.75;;;14.60;55.00;;;;;;4881467;29;20056;-78
2023/02/26 11:16:59;;;;;;;11.55;1.88;;;14.60;55.20;;;;;;4880583;29;20484;-78
2023/02/26 11:19:31;;;;;;;11.48;0.80;;;14.60;55.70;;;;;;4879601;29;20113;-78
2023/02/26 11:22:01;;;;;;;11.38;1.15;;;14.60;56.00;;;;;;4875841;29;20049;-80
2023/02/26 11:24:34;;;;;;;10.82;1.48;;;14.60;56.30;;;;;;4881269;29;20044;-77
2023/02/26 11:27:02;;;;;;;17.63;1.63;;;14.70;56.50;;;;;;4864934;29;20439;-77
2023/02/26 11:29:40;;;;;;;12.82;1.40;;;14.90;56.90;;;;;;4875633;29;20098;-77
2023/02/26 11:32:15;;;;;;;7.63;1.23;;;14.90;57.00;;;;;;4862698;29;20045;-79
2023/02/26 11:34:46;;;;;;;10.00;1.10;;;15.00;57.10;;;;;;4880986;29;20057;-77
2023/02/26 11:37:12;;;;;;;6.93;1.05;;;15.10;57.20;;;;;;4880922;29;20057;-79
2023/02/26 11:39:38;;;;;;;8.55;1.33;;;15.20;57.30;;;;;;4868051;29;20463;-76
2023/02/26 11:42:04;;;;;;;11.13;0.82;;;15.30;57.30;;;;;;4865330;29;20109;-77
2023/02/26 11:44:42;;;;;;;9.15;0.85;;;15.30;57.20;;;;;;4877338;29;20048;-78
2023/02/26 11:47:22;;;;;;;10.32;1.50;;;15.30;57.40;;;;;;4881085;29;20060;-81
2023/02/26 11:49:53;;;;;;;10.65;0.95;;;15.40;57.40;;;;;;4878915;29;20128;-81
2023/02/26 11:52:27;;;;;;;11.82;1.42;;;15.40;57.30;;;;;;4877721;29;20052;-79
2023/02/26 11:55:00;;;;;;;11.18;1.55;;;15.40;57.30;;;;;;4864541;29;20161;-77
2023/02/26 11:57:28;;;;;;;14.43;1.77;;;15.40;57.40;;;;;;4881249;29;20099;-82
2023/02/26 11:59:57;;;;;;;8.73;1.35;;;15.50;58.10;;;;;;4879901;29;20057;-77
2023/02/26 12:02:27;;;;;;;12.90;2.55;;;15.60;57.40;;;;;;4881207;29;20048;-80
2023/02/26 12:04:56;;;;;;;17.55;1.25;;;15.50;57.10;;;;;;4849623;29;20053;-82
2023/02/26 12:07:29;;;;;;;12.32;1.38;;;15.60;57.50;;;;;;4880999;29;20457;-80
2023/02/26 12:09:54;;;;;;;17.85;2.13;;;15.60;57.40;;;;;;4872205;29;20057;-82
2023/02/26 12:12:30;;;;;;;14.30;1.52;;;15.70;57.50;;;;;;4881116;29;20535;-81
2023/02/26 12:15:00;;;;;;;17.33;1.17;;;15.70;57.50;;;;;;4882679;29;20048;-79
2023/02/26 12:17:53;;;;;;;17.92;1.38;;;15.80;57.50;;;;;;4884929;29;20127;-78
2023/02/26 12:20:28;;;;;;;18.08;1.40;;;15.80;57.70;;;;;;4884476;29;20100;-78
2023/02/26 12:23:06;;;;;;;22.45;2.30;;;15.90;58.00;;;;;;4868133;29;20093;-77
2023/02/26 12:26:18;;;;;;;17.00;1.98;;;15.80;56.90;;;;;;4883998;29;20052;-77
2023/02/26 12:29:13;;;;;;;17.02;1.67;;;15.80;57.70;;;;;;4850199;29;20083;-75
2023/02/26 12:32:00;;;;;;;18.88;1.75;;;15.80;56.60;;;;;;4884714;29;20464;-80
2023/02/26 12:34:47;;;;;;;14.07;1.65;;;15.80;56.50;;;;;;4884510;29;20041;-79
2023/02/26 12:37:41;;;;;;;16.38;2.75;;;15.80;56.90;;;;;;4867493;29;20068;-81
2023/02/26 12:40:22;;;;;;;7.97;1.25;;;15.80;56.10;;;;;;4884530;29;20457;-77
2023/02/26 12:43:04;;;;;;;17.92;2.28;;;15.70;53.70;;;;;;4884063;29;20548;-75
2023/02/26 12:46:00;;;;;;;15.90;2.20;;;15.60;56.10;;;;;;4874350;29;20469;-77
2023/02/26 12:49:00;;;;;;;15.20;1.45;;;15.60;56.50;;;;;;4884612;29;20393;-76
2023/02/26 12:51:46;;;;;;;25.13;2.38;;;15.60;57.00;;;;;;4876898;29;20383;-75
2023/02/26 12:54:41;;;;;;;15.98;1.92;;;15.50;57.40;;;;;;4884297;29;20053;-77
2023/02/26 12:57:46;;;;;;;20.30;2.22;;;15.50;57.30;;;;;;4883285;29;20100;-80
2023/02/26 13:00:24;;;;;;;23.25;2.20;;;15.50;57.30;;;;;;4874642;29;20057;-75
2023/02/26 13:03:21;;;;;;;13.23;1.52;;;15.40;57.50;;;;;;4884095;29;20060;-77
2023/02/26 13:06:09;;;;;;;22.35;2.35;;;15.40;57.80;;;;;;4884341;29;20059;-78
2023/02/26 13:08:35;;;;;;;20.67;2.53;;;15.40;57.70;;;;;;4873469;29;20452;-76
2023/02/26 13:11:19;;;;;;;11.77;1.60;;;15.30;58.20;;;;;;4883038;29;20080;-77
2023/02/26 13:14:24;;;;;;;15.63;1.88;;;15.30;58.20;;;;;;4866252;29;20053;-77
2023/02/26 13:16:53;;;;;;;;;;;15.40;57.90;;;;;;4863022;29;20069;-78
2023/02/26 13:19:22;;;;;;;14.90;1.85;;;15.40;57.70;;;;;;4867393;29;20324;-76
2023/02/26 13:21:58;;;;;;;20.17;1.63;;;15.40;57.70;;;;;;4883934;29;20057;-76
2023/02/26 13:24:38;;;;;;;16.48;2.03;;;15.30;57.50;;;;;;4867741;29;20075;-76
2023/02/26 13:27:05;;;;;;;16.27;1.63;;;15.30;57.50;;;;;;4866617;29;20055;-76
2023/02/26 13:29:44;;;;;;;10.90;1.40;;;15.30;57.50;;;;;;4883283;29;20040;-79
2023/02/26 13:32:18;;;;;;;12.35;2.03;;;15.30;57.50;;;;;;4883813;29;20060;-76
2023/02/26 13:34:49;;;;;;;11.85;1.90;;;15.30;57.70;;;;;;4883917;29;20165;-78
2023/02/26 13:37:39;;;;;;;17.75;1.92;;;15.20;58.00;;;;;;4884311;29;20048;-74
2023/02/26 13:40:20;;;;;;;15.63;2.00;;;15.20;58.70;;;;;;4879529;29;20049;-77
2023/02/26 13:43:01;;;;;;;12.20;2.03;;;15.20;58.40;;;;;;4876867;29;20429;-80
2023/02/26 13:45:47;;;;;;;18.70;1.92;;;15.20;58.00;;;;;;4875618;29;20491;-80
2023/02/26 13:48:28;;;;;;;14.50;1.95;;;15.10;56.80;;;;;;4875198;29;20360;-80
2023/02/26 13:51:27;;;;;;;12.25;1.77;;;15.10;55.50;;;;;;4859615;29;20048;-77
2023/02/26 13:53:58;;;;;;;10.23;1.20;;;15.00;54.00;;;;;;4867920;29;20040;-76
2023/02/26 13:56:30;;;;;;;13.50;1.48;;;15.00;54.60;;;;;;4875075;29;20048;-76
2023/02/26 13:59:22;;;;;;;9.70;1.60;;;14.90;55.10;;;;;;4870982;29;20103;-79
2023/02/26 14:01:59;;;;;;;13.15;1.27;;;14.90;55.50;;;;;;4871613;29;20056;-80
2023/02/26 14:04:31;;;;;;;13.70;1.58;;;14.80;56.00;;;;;;4870293;29;20048;-79
2023/02/26 14:06:59;;;;;;;8.27;1.27;;;14.80;56.30;;;;;;4857881;29;20113;-78
2023/02/26 14:09:27;;;;;;;11.38;1.25;;;14.80;56.60;;;;;;4872403;29;20042;-82
2023/02/26 14:12:02;;;;;;;7.20;1.20;;;14.70;56.90;;;;;;4873581;29;20132;-81
2023/02/26 14:14:34;;;;;;;6.13;1.02;;;14.70;57.30;;;;;;4872931;29;20059;-79
2023/02/26 14:17:06;;;;;;;8.70;1.17;;;14.70;57.50;;;;;;4873782;29;20053;-81
2023/02/26 14:19:40;;;;;;;11.73;1.75;;;14.60;57.70;;;;;;4869546;29;20045;-81
2023/02/26 14:22:24;;;;;;;8.77;1.13;;;14.60;57.90;;;;;;4873694;29;20373;-81
2023/02/26 14:25:09;;;;;;;;;;;14.60;58.30;;;;;;4873270;29;20053;-80
2023/02/26 14:27:40;;;;;;;5.18;0.98;;;14.60;58.70;;;;;;4873417;29;19935;-78
2023/02/26 14:30:08;;;;;;;7.03;1.25;;;14.50;58.70;;;;;;4870252;29;20132;-78
2023/02/26 14:33:05;;;;;;;12.32;1.50;;;14.50;58.90;;;;;;4872106;29;20418;-77
2023/02/26 14:35:42;;;;;;;6.93;0.77;;;14.50;59.10;;;;;;4876873;29;20037;-79
2023/02/26 14:38:14;;;;;;;8.45;1.00;;;14.50;59.10;;;;;;4881377;29;20057;-79
2023/02/26 14:40:47;;;;;;;5.43;1.17;;;14.50;59.30;;;;;;4881748;29;20056;-78
2023/02/26 14:43:41;;;;;;;10.18;1.00;;;14.50;59.50;;;;;;4866094;29;20056;-79
2023/02/26 14:46:08;;;;;;;;;;;14.50;59.60;;;;;;4876613;29;20456;-80
2023/02/26 14:48:36;;;;;;;6.30;0.90;;;14.40;59.80;;;;;;4878233;29;19923;-80
2023/02/26 14:51:07;;;;;;;5.80;0.80;;;14.40;59.70;;;;;;4871550;29;20528;-80
2023/02/26 14:53:48;;;;;;;4.75;1.05;;;14.40;59.80;;;;;;4872336;29;20128;-80
2023/02/26 14:56:51;;;;;;;7.43;1.20;;;14.40;60.00;;;;;;4873828;29;20045;-81
2023/02/26 14:59:32;;;;;;;7.43;1.50;;;14.40;60.10;;;;;;4870453;29;20413;-80
2023/02/26 15:02:29;;;;;;;6.60;0.90;;;14.40;60.00;;;;;;4871383;29;20064;-80
2023/02/26 15:04:57;;;;;;;5.50;1.05;;;14.40;60.40;;;;;;4870084;29;20049;-79
2023/02/26 15:07:57;;;;;;;7.43;1.02;;;14.40;60.40;;;;;;4877192;29;20056;-79
2023/02/26 15:10:40;;;;;;;4.50;0.98;;;14.40;60.60;;;;;;4875584;29;20105;-79
2023/02/26 15:13:24;;;;;;;6.95;0.80;;;14.40;60.50;;;;;;4876315;29;20116;-77
2023/02/26 15:16:26;;;;;;;11.48;2.20;;;14.40;60.30;;;;;;4870360;29;20053;-76
2023/02/26 15:19:04;;;;;;;4.53;0.85;;;14.40;60.10;;;;;;4842028;29;20068;-77
2023/02/26 15:21:44;;;;;;;11.35;1.35;;;14.30;59.60;;;;;;4881892;29;20048;-75
2023/02/26 15:24:14;;;;;;;12.43;1.55;;;14.30;58.30;;;;;;4865442;29;20052;-80
2023/02/26 15:26:46;;;;;;;6.45;0.90;;;14.30;57.50;;;;;;4864193;29;20044;-81
2023/02/26 15:29:16;;;;;;;10.25;1.10;;;14.30;56.60;;;;;;4864825;29;20102;-81
2023/02/26 15:31:59;;;;;;;8.57;1.13;;;14.20;57.20;;;;;;4880811;29;20464;-80
2023/02/26 15:34:25;;;;;;;9.27;1.17;;;14.20;57.20;;;;;;4865151;29;20108;-80
2023/02/26 15:36:53;;;;;;;6.15;1.25;;;14.20;57.50;;;;;;4881196;29;20104;-80
2023/02/26 15:39:22;;;;;;;12.15;1.25;;;14.20;56.90;;;;;;4880396;29;20487;-81
2023/02/26 15:41:53;;;;;;;11.35;1.02;;;14.30;57.40;;;;;;4881416;29;20049;-80
2023/02/26 15:44:27;;;;;;;8.93;1.10;;;14.40;56.80;;;;;;4881463;29;20101;-77
2023/02/26 15:47:08;;;;;;;9.65;0.95;;;14.50;56.90;;;;;;4881716;29;20076;-80
2023/02/26 15:49:43;;;;;;;9.20;0.82;;;14.60;57.10;;;;;;4879379;29;20045;-80
2023/02/26 15:52:16;;;;;;;11.70;1.20;;;14.70;57.20;;;;;;4864918;29;20053;-78
2023/02/26 15:54:47;;;;;;;14.30;1.80;;;14.80;57.90;;;;;;4881219;29;20049;-79
2023/02/26 15:57:26;;;;;;;7.07;0.93;;;14.80;58.60;;;;;;4881294;29;20361;-81
2023/02/26 16:00:24;;;;;;;11.18;1.45;;;14.80;58.90;;;;;;4865054;29;20432;-79
2023/02/26 16:02:55;;;;;;;12.55;1.50;;;14.90;59.50;;;;;;4863627;29;20053;-77
2023/02/26 16:05:22;;;;;;;17.25;2.20;;;14.90;60.00;;;;;;4879641;29;20037;-80
2023/02/26 16:07:48;;;;;;;9.93;1.45;;;14.90;60.50;;;;;;4864727;29;20108;-79
2023/02/26 16:10:26;;;;;;;12.90;1.40;;;14.90;60.60;;;;;;4881236;29;20052;-82
2023/02/26 16:12:53;;;;;;;24.08;2.80;;;14.90;61.50;;;;;;4881062;29;20061;-78
2023/02/26 16:15:34;;;;;;;21.63;2.67;;;15.00;62.20;;;;;;4880611;29;20350;-80
2023/02/26 16:18:08;;;;;;;13.75;1.85;;;15.00;61.50;;;;;;4864567;29;20041;-77
2023/02/26 16:20:39;;;;;;;22.92;3.10;;;15.10;61.10;;;;;;4880881;29;20047;-76
2023/02/26 16:23:18;;;;;;;15.00;1.70;;;15.20;60.80;;;;;;4880477;29;20048;-78
2023/02/26 16:26:10;;;;;;;18.95;2.05;;;15.30;60.10;;;;;;4862764;29;20436;-78
2023/02/26 16:28:44;;;;;;;15.15;2.22;;;15.40;59.40;;;;;;4846242;29;20468;-79
2023/02/26 16:31:20;;;;;;;14.65;1.70;;;15.50;59.40;;;;;;4846673;29;20093;-78
2023/02/26 16:33:59;;;;;;;13.82;1.90;;;15.60;59.70;;;;;;4850669;29;20053;-80
2023/02/26 16:36:30;;;;;;;12.30;2.05;;;15.60;60.00;;;;;;4881181;29;20093;-78
2023/02/26 16:39:21;;;;;;;15.45;1.50;;;15.70;60.20;;;;;;4864538;29;20042;-78
2023/02/26 16:42:08;;;;;;;10.77;1.58;;;15.70;60.40;;;;;;4876016;29;20057;-80
2023/02/26 16:44:44;;;;;;;11.43;1.98;;;15.90;60.30;;;;;;4879970;29;20048;-80
2023/02/26 16:47:10;;;;;;;11.15;2.58;;;15.90;60.10;;;;;;4881121;29;20067;-81
2023/02/26 16:49:38;;;;;;;16.45;1.75;;;15.90;60.30;;;;;;4881627;29;20441;-78
2023/02/26 16:52:04;;;;;;;16.60;1.80;;;15.90;60.50;;;;;;4880725;29;20373;-79
2023/02/26 16:54:37;;;;;;;13.02;1.23;;;15.90;60.60;;;;;;4879091;29;20043;-79
2023/02/26 16:57:31;;;;;;;25.42;2.33;;;15.90;60.70;;;;;;4877972;29;20059;-75
2023/02/26 17:00:18;;;;;;;21.73;2.55;;;15.90;61.00;;;;;;4873705;29;20124;-76
2023/02/26 17:02:47;;;;;;;16.77;2.53;;;15.90;59.30;;;;;;4866843;29;20123;-78
2023/02/26 17:05:32;;;;;;;21.55;2.63;;;15.90;57.70;;;;;;4865792;29;20086;-74
2023/02/26 17:08:40;;;;;;;15.73;2.63;;;15.90;54.30;;;;;;4849342;29;20057;-79
2023/02/26 17:11:15;;;;;;;21.45;2.35;;;15.80;51.90;;;;;;4869909;29;20048;-77
2023/02/26 17:13:41;;;;;;;13.02;1.65;;;15.70;52.90;;;;;;4884078;29;20041;-78
2023/02/26 17:16:13;;;;;;;13.98;2.10;;;15.60;53.00;;;;;;4867900;29;20060;-76
2023/02/26 17:18:41;;;;;;;15.88;1.70;;;15.50;53.50;;;;;;4867258;29;20080;-78
2023/02/26 17:21:19;;;;;;;16.42;2.63;;;15.50;54.30;;;;;;4880534;29;20353;-78
2023/02/26 17:23:45;;;;;;;16.20;2.40;;;15.40;54.60;;;;;;4860890;29;20085;-78
2023/02/26 17:26:11;;;;;;;15.02;1.90;;;15.40;55.70;;;;;;4848671;29;20110;-79
2023/02/26 17:28:41;;;;;;;22.35;3.33;;;15.30;55.70;;;;;;4848917;29;20045;-78
2023/02/26 17:31:07;;;;;;;14.70;2.13;;;15.30;56.10;;;;;;4851503;29;20036;-77
2023/02/26 17:33:34;;;;;;;11.60;1.83;;;15.20;56.20;;;;;;4851368;29;20055;-77
2023/02/26 17:36:01;;;;;;;15.88;2.00;;;15.20;56.50;;;;;;4852086;29;20048;-78
2023/02/26 17:38:27;;;;;;;19.88;2.55;;;15.10;56.60;;;;;;4867330;29;20049;-79
2023/02/26 17:40:54;;;;;;;12.00;1.55;;;15.10;56.80;;;;;;4851733;29;20072;-78
2023/02/26 17:43:21;;;;;;;14.75;1.60;;;15.00;56.90;;;;;;4851649;29;20128;-77
2023/02/26 17:45:47;;;;;;;16.88;2.22;;;15.00;57.10;;;;;;4851771;29;20045;-79
2023/02/26 17:48:14;;;;;;;16.55;2.08;;;15.00;57.20;;;;;;4851699;29;20060;-78
2023/02/26 17:50:48;;;;;;;11.65;2.25;;;14.90;57.50;;;;;;4851247;29;20368;-79
2023/02/26 18:27:18;;;;;;;6.03;1.38;;;14.70;49.50;;;;;;5711369;24;20187;-72
2023/02/26 18:29:44;;;;;;;5.43;0.65;;;14.70;48.30;;;;;;4862781;29;20129;-73
2023/02/26 18:56:43;;;;;;;6.90;0.98;;;13.80;54.40;;;;;;4862195;29;20248;-73
2023/02/26 18:59:08;;;;;;;6.07;1.38;;;13.80;54.00;;;;;;4846707;29;20128;-76
2023/02/26 19:01:34;;;;;;;6.25;0.85;;;13.80;54.00;;;;;;4872422;29;20041;-73
2023/02/26 19:04:00;;;;;;;9.25;1.25;;;13.80;53.90;;;;;;4865857;29;20045;-73
2023/02/26 19:06:25;;;;;;;4.32;0.60;;;13.80;54.30;;;;;;4846689;29;20049;-77
2023/02/26 19:08:51;;;;;;;7.82;1.10;;;13.90;54.90;;;;;;4863187;29;20049;-75
2023/02/26 19:11:17;;;;;;;4.28;0.88;;;13.90;55.00;;;;;;4863569;29;20049;-74
2023/02/26 19:13:43;;;;;;;4.57;1.00;;;13.90;56.20;;;;;;4862807;29;20057;-73
2023/02/26 19:16:08;;;;;;;4.88;1.00;;;13.90;56.30;;;;;;4863705;29;20045;-72
2023/02/26 19:18:34;;;;;;;4.65;1.25;;;13.90;56.80;;;;;;4863286;29;20046;-74
2023/02/26 19:21:01;;;;;;;5.35;0.98;;;13.90;57.30;;;;;;4863752;29;20080;-75
2023/02/26 19:23:27;;;;;;;23.60;2.90;;;13.90;57.80;;;;;;4863051;29;20060;-76
2023/02/26 19:25:53;;;;;;;20.55;2.75;;;13.90;57.80;;;;;;4863539;29;20562;-77
2023/02/26 19:28:19;;;;;;;11.45;2.35;;;13.90;58.10;;;;;;4847159;29;20121;-76
2023/02/26 19:30:44;;;;;;;8.23;1.58;;;13.90;58.10;;;;;;4863334;29;20045;-76
2023/02/26 19:33:18;;;;;;;7.93;1.40;;;13.90;58.00;;;;;;4863148;29;20037;-76
2023/02/26 19:35:47;;;;;;;8.93;1.90;;;13.80;58.00;;;;;;4862862;29;20366;-74
2023/02/26 19:38:13;;;;;;;5.57;1.00;;;13.80;58.30;;;;;;4863059;29;20138;-75
2023/02/26 19:40:38;;;;;;;7.47;1.45;;;13.80;58.60;;;;;;4863361;29;20077;-75
2023/02/26 19:43:04;;;;;;;8.25;1.30;;;13.70;58.80;;;;;;4862922;29;20429;-74
2023/02/26 19:45:30;;;;;;;5.90;1.30;;;13.70;58.90;;;;;;4863134;29;20056;-75
2023/02/26 19:47:56;;;;;;;8.65;1.25;;;13.70;59.00;;;;;;4862772;29;20128;-74
2023/02/26 19:50:24;;;;;;;6.35;1.10;;;13.60;59.10;;;;;;4846982;29;20133;-74
2023/02/26 19:52:50;;;;;;;7.32;1.02;;;13.70;59.10;;;;;;4863186;29;20045;-75
2023/02/26 19:55:16;;;;;;;7.22;1.25;;;13.60;59.20;;;;;;4857477;29;20097;-73
2023/02/26 19:57:42;;;;;;;7.97;1.10;;;13.60;59.30;;;;;;4827552;29;20438;-74
2023/02/26 20:00:08;;;;;;;7.20;1.10;;;13.60;59.40;;;;;;4844269;29;20050;-75
2023/02/26 20:02:34;;;;;;;8.23;0.77;;;13.60;59.40;;;;;;4827348;29;20049;-75
2023/02/26 20:05:00;;;;;;;6.35;1.20;;;13.60;59.50;;;;;;4842964;29;20068;-75
2023/02/26 20:07:26;;;;;;;11.95;1.48;;;13.60;59.90;;;;;;4843654;29;20062;-74
2023/02/26 20:09:52;;;;;;;7.18;0.90;;;13.50;59.80;;;;;;4843315;29;20092;-74
2023/02/26 20:12:17;;;;;;;3.72;0.73;;;13.60;59.90;;;;;;4843577;29;20125;-76
2023/02/26 20:14:43;;;;;;;3.40;0.88;;;13.50;59.90;;;;;;4843743;29;20157;-76
2023/02/26 20:17:09;;;;;;;5.10;1.10;;;13.50;59.90;;;;;;4843320;29;20418;-77
2023/02/26 20:19:35;;;;;;;6.28;1.02;;;13.50;59.90;;;;;;4843313;29;20060;-76
2023/02/26 20:22:00;;;;;;;4.05;0.80;;;13.50;60.00;;;;;;4842782;29;20134;-76
2023/02/26 20:24:26;;;;;;;4.15;0.93;;;13.50;59.90;;;;;;4843184;29;20045;-75
2023/02/26 20:26:52;;;;;;;7.10;1.15;;;13.50;60.00;;;;;;4843594;29;20050;-76
2023/02/26 20:29:18;;;;;;;6.63;0.90;;;13.50;60.00;;;;;;4843434;29;20102;-76
2023/02/26 20:31:48;;;;;;;5.38;1.50;;;13.50;60.00;;;;;;4843647;29;20129;-71
2023/02/26 20:34:16;;;;;;;5.60;0.80;;;13.50;60.30;;;;;;4843540;29;20155;-76